sensor_id;sensor_type;location;lat;lon;timestamp;P1;durP1;ratioP1;P2;durP2;ratioP2
9771;SDS011;4925;52.588;13.370;2023-07-13T00:01:19;3.55;;;2.60;;
9771;SDS011;4925;52.588;13.370;2023-07-13T00:03:44;4.07;;;2.85;;
9771;SDS011;4925;52.588;13.370;2023-07-13T00:06:10;5.00;;;2.80;;
9771;SDS011;4925;52.588;13.370;2023-07-13T00:08:36;2.65;;;2.40;;
9771;SDS011;4925;52.588;13.370;2023-07-13T00:11:02;4.95;;;2.28;;
9771;SDS011;4925;52.588;13.370;2023-07-13T00:13:28;3.42;;;2.55;;
9771;SDS011;4925;52.588;13.370;2023-07-13T00:15:55;2.50;;;2.30;;
9771;SDS011;4925;52.588;13.370;2023-07-13T00:18:22;2.97;;;2.30;;
9771;SDS011;4925;52.588;13.370;2023-07-13T00:20:48;2.80;;;2.28;;
9771;SDS011;4925;52.588;13.370;2023-07-13T00:23:14;3.33;;;2.40;;
9771;SDS011;4925;52.588;13.370;2023-07-13T00:25:40;4.68;;;2.42;;
9771;SDS011;4925;52.588;13.370;2023-07-13T00:28:05;5.57;;;2.30;;
9771;SDS011;4925;52.588;13.370;2023-07-13T00:30:31;3.40;;;2.10;;
9771;SDS011;4925;52.588;13.370;2023-07-13T00:32:57;4.88;;;2.05;;
9771;SDS011;4925;52.588;13.370;2023-07-13T00:35:22;4.13;;;1.88;;
9771;SDS011;4925;52.588;13.370;2023-07-13T00:37:48;2.97;;;2.15;;
9771;SDS011;4925;52.588;13.370;2023-07-13T00:40:15;4.50;;;2.15;;
9771;SDS011;4925;52.588;13.370;2023-07-13T00:42:41;4.18;;;2.55;;
9771;SDS011;4925;52.588;13.370;2023-07-13T00:47:43;6.88;;;2.58;;
9771;SDS011;4925;52.588;13.370;2023-07-13T00:50:10;2.95;;;2.05;;
9771;SDS011;4925;52.588;13.370;2023-07-13T00:52:40;4.60;;;2.40;;
9771;SDS011;4925;52.588;13.370;2023-07-13T00:55:11;3.13;;;2.30;;
9771;SDS011;4925;52.588;13.370;2023-07-13T00:57:38;2.58;;;2.33;;
9771;SDS011;4925;52.588;13.370;2023-07-13T01:00:05;3.47;;;2.15;;
9771;SDS011;4925;52.588;13.370;2023-07-13T01:02:34;2.35;;;1.92;;
9771;SDS011;4925;52.588;13.370;2023-07-13T01:48:50;2.80;;;2.53;;
9771;SDS011;4925;52.588;13.370;2023-07-13T01:51:17;4.93;;;2.40;;
9771;SDS011;4925;52.588;13.370;2023-07-13T01:53:45;4.38;;;2.28;;
9771;SDS011;4925;52.588;13.370;2023-07-13T01:56:11;2.92;;;2.60;;
9771;SDS011;4925;52.588;13.370;2023-07-13T01:58:38;3.13;;;2.25;;
9771;SDS011;4925;52.588;13.370;2023-07-13T02:01:04;3.90;;;2.72;;
9771;SDS011;4925;52.588;13.370;2023-07-13T02:10:14;3.45;;;2.65;;
9771;SDS011;4925;52.588;13.370;2023-07-13T02:12:40;4.47;;;2.53;;
9771;SDS011;4925;52.588;13.370;2023-07-13T02:15:06;5.22;;;2.70;;
9771;SDS011;4925;52.588;13.370;2023-07-13T02:17:33;4.45;;;2.95;;
9771;SDS011;4925;52.588;13.370;2023-07-13T02:19:59;12.88;;;2.92;;
9771;SDS011;4925;52.588;13.370;2023-07-13T02:22:25;3.08;;;2.85;;
9771;SDS011;4925;52.588;13.370;2023-07-13T02:24:51;3.22;;;2.30;;
9771;SDS011;4925;52.588;13.370;2023-07-13T02:27:17;3.20;;;2.50;;
9771;SDS011;4925;52.588;13.370;2023-07-13T02:29:42;5.10;;;2.60;;
9771;SDS011;4925;52.588;13.370;2023-07-13T02:32:08;4.25;;;2.63;;
9771;SDS011;4925;52.588;13.370;2023-07-13T02:34:34;4.50;;;2.40;;
9771;SDS011;4925;52.588;13.370;2023-07-13T02:36:59;5.60;;;2.97;;
9771;SDS011;4925;52.588;13.370;2023-07-13T02:39:25;6.30;;;2.65;;
9771;SDS011;4925;52.588;13.370;2023-07-13T02:41:51;3.55;;;2.33;;
9771;SDS011;4925;52.588;13.370;2023-07-13T02:44:16;2.80;;;2.42;;
9771;SDS011;4925;52.588;13.370;2023-07-13T02:46:42;3.10;;;2.58;;
9771;SDS011;4925;52.588;13.370;2023-07-13T02:49:08;5.95;;;2.90;;
9771;SDS011;4925;52.588;13.370;2023-07-13T02:51:33;3.45;;;2.35;;
9771;SDS011;4925;52.588;13.370;2023-07-13T02:54:00;4.20;;;3.10;;
9771;SDS011;4925;52.588;13.370;2023-07-13T02:56:27;7.53;;;3.28;;
9771;SDS011;4925;52.588;13.370;2023-07-13T02:58:54;4.68;;;2.90;;
9771;SDS011;4925;52.588;13.370;2023-07-13T03:01:20;5.97;;;3.00;;
9771;SDS011;4925;52.588;13.370;2023-07-13T03:03:46;8.10;;;3.08;;
9771;SDS011;4925;52.588;13.370;2023-07-13T03:06:13;3.83;;;2.85;;
9771;SDS011;4925;52.588;13.370;2023-07-13T03:08:40;6.32;;;3.38;;
9771;SDS011;4925;52.588;13.370;2023-07-13T03:11:11;4.45;;;2.90;;
9771;SDS011;4925;52.588;13.370;2023-07-13T03:13:39;5.00;;;3.05;;
9771;SDS011;4925;52.588;13.370;2023-07-13T03:16:06;4.97;;;2.72;;
9771;SDS011;4925;52.588;13.370;2023-07-13T03:18:33;4.25;;;3.05;;
9771;SDS011;4925;52.588;13.370;2023-07-13T03:21:00;7.07;;;3.50;;
9771;SDS011;4925;52.588;13.370;2023-07-13T03:23:25;3.92;;;2.72;;
9771;SDS011;4925;52.588;13.370;2023-07-13T03:26:00;3.30;;;2.50;;
9771;SDS011;4925;52.588;13.370;2023-07-13T03:28:34;3.35;;;2.10;;
9771;SDS011;4925;52.588;13.370;2023-07-13T03:31:03;4.80;;;2.58;;
9771;SDS011;4925;52.588;13.370;2023-07-13T03:33:49;3.70;;;2.30;;
9771;SDS011;4925;52.588;13.370;2023-07-13T03:36:25;4.35;;;2.08;;
9771;SDS011;4925;52.588;13.370;2023-07-13T03:38:53;2.95;;;2.08;;
9771;SDS011;4925;52.588;13.370;2023-07-13T03:41:21;2.72;;;2.22;;
9771;SDS011;4925;52.588;13.370;2023-07-13T03:43:48;3.25;;;2.20;;
9771;SDS011;4925;52.588;13.370;2023-07-13T03:46:14;6.55;;;2.20;;
9771;SDS011;4925;52.588;13.370;2023-07-13T03:48:41;3.63;;;2.03;;
9771;SDS011;4925;52.588;13.370;2023-07-13T03:51:09;2.75;;;2.25;;
9771;SDS011;4925;52.588;13.370;2023-07-13T03:53:39;3.08;;;2.78;;
9771;SDS011;4925;52.588;13.370;2023-07-13T03:56:06;3.92;;;2.40;;
9771;SDS011;4925;52.588;13.370;2023-07-13T03:58:33;3.33;;;2.60;;
9771;SDS011;4925;52.588;13.370;2023-07-13T04:01:01;2.63;;;2.35;;
9771;SDS011;4925;52.588;13.370;2023-07-13T04:03:28;3.45;;;2.63;;
9771;SDS011;4925;52.588;13.370;2023-07-13T04:05:57;6.53;;;2.28;;
9771;SDS011;4925;52.588;13.370;2023-07-13T04:08:25;5.82;;;2.80;;
9771;SDS011;4925;52.588;13.370;2023-07-13T04:10:52;5.47;;;3.10;;
9771;SDS011;4925;52.588;13.370;2023-07-13T04:13:17;3.90;;;2.88;;
9771;SDS011;4925;52.588;13.370;2023-07-13T04:15:43;5.60;;;2.83;;
9771;SDS011;4925;52.588;13.370;2023-07-13T04:18:09;2.90;;;2.50;;
9771;SDS011;4925;52.588;13.370;2023-07-13T04:20:34;4.18;;;2.33;;
9771;SDS011;4925;52.588;13.370;2023-07-13T04:23:00;4.13;;;3.05;;
9771;SDS011;4925;52.588;13.370;2023-07-13T04:25:26;4.60;;;2.63;;
9771;SDS011;4925;52.588;13.370;2023-07-13T04:27:52;3.05;;;2.47;;
9771;SDS011;4925;52.588;13.370;2023-07-13T04:30:18;2.70;;;2.10;;
9771;SDS011;4925;52.588;13.370;2023-07-13T04:32:44;6.07;;;2.50;;
9771;SDS011;4925;52.588;13.370;2023-07-13T04:35:09;6.25;;;2.13;;
9771;SDS011;4925;52.588;13.370;2023-07-13T04:37:35;3.30;;;2.13;;
9771;SDS011;4925;52.588;13.370;2023-07-13T04:40:01;5.45;;;2.15;;
9771;SDS011;4925;52.588;13.370;2023-07-13T04:42:28;2.42;;;2.22;;
9771;SDS011;4925;52.588;13.370;2023-07-13T04:44:54;2.40;;;1.92;;
9771;SDS011;4925;52.588;13.370;2023-07-13T04:47:20;3.90;;;2.10;;
9771;SDS011;4925;52.588;13.370;2023-07-13T04:49:46;4.95;;;2.10;;
9771;SDS011;4925;52.588;13.370;2023-07-13T04:52:12;2.88;;;2.00;;
9771;SDS011;4925;52.588;13.370;2023-07-13T04:54:38;3.30;;;2.35;;
9771;SDS011;4925;52.588;13.370;2023-07-13T04:57:04;2.72;;;2.00;;
9771;SDS011;4925;52.588;13.370;2023-07-13T04:59:33;2.75;;;2.40;;
9771;SDS011;4925;52.588;13.370;2023-07-13T05:01:59;4.20;;;2.42;;
9771;SDS011;4925;52.588;13.370;2023-07-13T05:04:26;4.55;;;2.38;;
9771;SDS011;4925;52.588;13.370;2023-07-13T05:06:52;2.67;;;1.90;;
9771;SDS011;4925;52.588;13.370;2023-07-13T05:09:17;5.32;;;2.20;;
9771;SDS011;4925;52.588;13.370;2023-07-13T05:11:43;3.33;;;2.70;;
9771;SDS011;4925;52.588;13.370;2023-07-13T05:14:09;4.63;;;2.17;;
9771;SDS011;4925;52.588;13.370;2023-07-13T05:16:35;3.03;;;2.05;;
9771;SDS011;4925;52.588;13.370;2023-07-13T05:19:01;3.80;;;2.40;;
9771;SDS011;4925;52.588;13.370;2023-07-13T05:21:27;3.97;;;2.28;;
9771;SDS011;4925;52.588;13.370;2023-07-13T05:23:53;4.55;;;2.08;;
9771;SDS011;4925;52.588;13.370;2023-07-13T05:26:19;2.88;;;2.20;;
9771;SDS011;4925;52.588;13.370;2023-07-13T05:28:45;3.35;;;2.30;;
9771;SDS011;4925;52.588;13.370;2023-07-13T05:31:12;3.03;;;2.38;;
9771;SDS011;4925;52.588;13.370;2023-07-13T05:33:38;2.53;;;2.33;;
9771;SDS011;4925;52.588;13.370;2023-07-13T05:36:04;5.78;;;2.20;;
9771;SDS011;4925;52.588;13.370;2023-07-13T05:38:30;3.78;;;2.28;;
9771;SDS011;4925;52.588;13.370;2023-07-13T05:40:57;4.07;;;1.90;;
9771;SDS011;4925;52.588;13.370;2023-07-13T05:43:22;8.30;;;2.50;;
9771;SDS011;4925;52.588;13.370;2023-07-13T05:45:48;8.02;;;2.40;;
9771;SDS011;4925;52.588;13.370;2023-07-13T05:48:16;6.32;;;2.25;;
9771;SDS011;4925;52.588;13.370;2023-07-13T05:50:41;5.10;;;2.10;;
9771;SDS011;4925;52.588;13.370;2023-07-13T05:53:07;2.80;;;1.83;;
9771;SDS011;4925;52.588;13.370;2023-07-13T05:55:33;3.40;;;2.10;;
9771;SDS011;4925;52.588;13.370;2023-07-13T05:57:59;4.13;;;2.33;;
9771;SDS011;4925;52.588;13.370;2023-07-13T06:00:25;4.68;;;2.03;;
9771;SDS011;4925;52.588;13.370;2023-07-13T06:02:51;5.75;;;2.30;;
9771;SDS011;4925;52.588;13.370;2023-07-13T06:05:17;3.10;;;1.95;;
9771;SDS011;4925;52.588;13.370;2023-07-13T06:07:43;3.25;;;2.13;;
9771;SDS011;4925;52.588;13.370;2023-07-13T06:10:08;2.28;;;1.90;;
9771;SDS011;4925;52.588;13.370;2023-07-13T06:12:34;2.97;;;2.00;;
9771;SDS011;4925;52.588;13.370;2023-07-13T06:15:00;4.35;;;2.00;;
9771;SDS011;4925;52.588;13.370;2023-07-13T06:17:26;2.85;;;2.00;;
9771;SDS011;4925;52.588;13.370;2023-07-13T06:19:52;2.55;;;1.50;;
9771;SDS011;4925;52.588;13.370;2023-07-13T06:22:17;1.95;;;1.80;;
9771;SDS011;4925;52.588;13.370;2023-07-13T06:24:43;1.60;;;1.50;;
9771;SDS011;4925;52.588;13.370;2023-07-13T06:27:08;2.70;;;1.90;;
9771;SDS011;4925;52.588;13.370;2023-07-13T06:29:34;4.00;;;1.98;;
9771;SDS011;4925;52.588;13.370;2023-07-13T06:32:00;2.55;;;1.80;;
9771;SDS011;4925;52.588;13.370;2023-07-13T06:34:26;2.63;;;1.73;;
9771;SDS011;4925;52.588;13.370;2023-07-13T06:36:52;3.13;;;2.80;;
9771;SDS011;4925;52.588;13.370;2023-07-13T06:39:17;4.97;;;1.90;;
9771;SDS011;4925;52.588;13.370;2023-07-13T06:41:43;4.50;;;1.75;;
9771;SDS011;4925;52.588;13.370;2023-07-13T06:44:09;2.05;;;1.73;;
9771;SDS011;4925;52.588;13.370;2023-07-13T06:46:34;1.67;;;1.52;;
9771;SDS011;4925;52.588;13.370;2023-07-13T06:49:00;2.95;;;2.00;;
9771;SDS011;4925;52.588;13.370;2023-07-13T06:51:26;3.75;;;1.90;;
9771;SDS011;4925;52.588;13.370;2023-07-13T06:53:52;5.38;;;2.45;;
9771;SDS011;4925;52.588;13.370;2023-07-13T06:56:17;5.35;;;2.13;;
9771;SDS011;4925;52.588;13.370;2023-07-13T06:58:43;2.97;;;1.73;;
9771;SDS011;4925;52.588;13.370;2023-07-13T07:01:09;5.45;;;1.98;;
9771;SDS011;4925;52.588;13.370;2023-07-13T07:03:35;2.17;;;1.50;;
9771;SDS011;4925;52.588;13.370;2023-07-13T07:06:01;2.58;;;1.50;;
9771;SDS011;4925;52.588;13.370;2023-07-13T07:08:39;3.65;;;1.83;;
9771;SDS011;4925;52.588;13.370;2023-07-13T07:11:05;1.88;;;1.70;;
9771;SDS011;4925;52.588;13.370;2023-07-13T07:13:33;2.30;;;1.30;;
9771;SDS011;4925;52.588;13.370;2023-07-13T07:15:58;1.17;;;1.13;;
9771;SDS011;4925;52.588;13.370;2023-07-13T07:18:25;2.88;;;1.48;;
9771;SDS011;4925;52.588;13.370;2023-07-13T07:20:51;4.03;;;1.50;;
9771;SDS011;4925;52.588;13.370;2023-07-13T07:23:17;2.50;;;1.40;;
9771;SDS011;4925;52.588;13.370;2023-07-13T07:25:43;2.78;;;1.40;;
9771;SDS011;4925;52.588;13.370;2023-07-13T07:28:09;3.35;;;1.50;;
9771;SDS011;4925;52.588;13.370;2023-07-13T07:30:35;4.35;;;1.45;;
9771;SDS011;4925;52.588;13.370;2023-07-13T07:33:03;5.85;;;1.67;;
9771;SDS011;4925;52.588;13.370;2023-07-13T07:35:28;1.85;;;1.13;;
9771;SDS011;4925;52.588;13.370;2023-07-13T07:37:54;2.30;;;1.38;;
9771;SDS011;4925;52.588;13.370;2023-07-13T07:40:19;1.63;;;1.35;;
9771;SDS011;4925;52.588;13.370;2023-07-13T07:42:45;2.05;;;1.50;;
9771;SDS011;4925;52.588;13.370;2023-07-13T07:45:11;2.50;;;1.15;;
9771;SDS011;4925;52.588;13.370;2023-07-13T07:47:37;2.42;;;1.38;;
9771;SDS011;4925;52.588;13.370;2023-07-13T07:50:03;2.38;;;1.38;;
9771;SDS011;4925;52.588;13.370;2023-07-13T07:52:29;1.67;;;1.10;;
9771;SDS011;4925;52.588;13.370;2023-07-13T07:54:55;1.85;;;1.30;;
9771;SDS011;4925;52.588;13.370;2023-07-13T07:57:20;2.67;;;1.50;;
9771;SDS011;4925;52.588;13.370;2023-07-13T07:59:46;2.25;;;1.13;;
9771;SDS011;4925;52.588;13.370;2023-07-13T08:02:13;3.85;;;1.50;;
9771;SDS011;4925;52.588;13.370;2023-07-13T08:04:39;2.45;;;1.30;;
9771;SDS011;4925;52.588;13.370;2023-07-13T08:07:05;2.28;;;1.52;;
9771;SDS011;4925;52.588;13.370;2023-07-13T08:09:31;3.60;;;1.77;;
9771;SDS011;4925;52.588;13.370;2023-07-13T08:11:57;1.73;;;1.13;;
9771;SDS011;4925;52.588;13.370;2023-07-13T08:14:23;2.33;;;1.60;;
9771;SDS011;4925;52.588;13.370;2023-07-13T08:16:48;2.85;;;1.42;;
9771;SDS011;4925;52.588;13.370;2023-07-13T08:19:14;1.17;;;1.17;;
9771;SDS011;4925;52.588;13.370;2023-07-13T08:21:40;5.53;;;1.80;;
9771;SDS011;4925;52.588;13.370;2023-07-13T08:24:08;1.45;;;1.35;;
9771;SDS011;4925;52.588;13.370;2023-07-13T08:26:34;1.50;;;1.40;;
9771;SDS011;4925;52.588;13.370;2023-07-13T08:29:00;3.38;;;1.58;;
9771;SDS011;4925;52.588;13.370;2023-07-13T08:31:27;2.25;;;1.20;;
9771;SDS011;4925;52.588;13.370;2023-07-13T08:33:52;4.72;;;1.88;;
9771;SDS011;4925;52.588;13.370;2023-07-13T08:36:18;3.20;;;1.63;;
9771;SDS011;4925;52.588;13.370;2023-07-13T08:38:44;2.75;;;1.30;;
9771;SDS011;4925;52.588;13.370;2023-07-13T08:41:13;2.00;;;1.15;;
9771;SDS011;4925;52.588;13.370;2023-07-13T08:43:42;1.50;;;1.40;;
9771;SDS011;4925;52.588;13.370;2023-07-13T08:48:53;2.00;;;1.20;;
9771;SDS011;4925;52.588;13.370;2023-07-13T08:51:49;2.17;;;1.02;;
9771;SDS011;4925;52.588;13.370;2023-07-13T08:56:57;2.85;;;1.27;;
9771;SDS011;4925;52.588;13.370;2023-07-13T08:59:27;1.27;;;1.08;;
9771;SDS011;4925;52.588;13.370;2023-07-13T09:10:17;3.40;;;1.35;;
9771;SDS011;4925;52.588;13.370;2023-07-13T09:15:41;3.17;;;1.30;;
9771;SDS011;4925;52.588;13.370;2023-07-13T09:18:19;2.42;;;1.40;;
9771;SDS011;4925;52.588;13.370;2023-07-13T09:21:05;2.92;;;1.50;;
9771;SDS011;4925;52.588;13.370;2023-07-13T09:23:45;1.50;;;1.40;;
9771;SDS011;4925;52.588;13.370;2023-07-13T09:26:14;3.33;;;1.30;;
9771;SDS011;4925;52.588;13.370;2023-07-13T09:28:42;3.42;;;1.55;;
9771;SDS011;4925;52.588;13.370;2023-07-13T09:31:14;7.63;;;1.63;;
9771;SDS011;4925;52.588;13.370;2023-07-13T09:34:02;2.42;;;1.55;;
9771;SDS011;4925;52.588;13.370;2023-07-13T09:36:33;2.05;;;1.33;;
9771;SDS011;4925;52.588;13.370;2023-07-13T09:41:36;3.50;;;1.60;;
9771;SDS011;4925;52.588;13.370;2023-07-13T09:44:15;4.82;;;1.60;;
9771;SDS011;4925;52.588;13.370;2023-07-13T09:46:44;2.45;;;1.58;;
9771;SDS011;4925;52.588;13.370;2023-07-13T09:49:11;3.05;;;1.65;;
9771;SDS011;4925;52.588;13.370;2023-07-13T09:51:41;2.97;;;1.52;;
9771;SDS011;4925;52.588;13.370;2023-07-13T09:54:18;4.78;;;1.58;;
9771;SDS011;4925;52.588;13.370;2023-07-13T09:56:45;3.53;;;2.00;;
9771;SDS011;4925;52.588;13.370;2023-07-13T09:59:18;4.32;;;2.17;;
9771;SDS011;4925;52.588;13.370;2023-07-13T10:01:49;3.47;;;2.20;;
9771;SDS011;4925;52.588;13.370;2023-07-13T10:04:16;2.33;;;1.70;;
9771;SDS011;4925;52.588;13.370;2023-07-13T10:06:46;3.92;;;1.65;;
9771;SDS011;4925;52.588;13.370;2023-07-13T10:09:15;4.13;;;2.10;;
9771;SDS011;4925;52.588;13.370;2023-07-13T10:11:42;6.68;;;2.35;;
9771;SDS011;4925;52.588;13.370;2023-07-13T10:16:43;3.00;;;1.90;;
9771;SDS011;4925;52.588;13.370;2023-07-13T10:21:38;3.65;;;1.90;;
9771;SDS011;4925;52.588;13.370;2023-07-13T10:24:17;2.17;;;1.80;;
9771;SDS011;4925;52.588;13.370;2023-07-13T10:26:46;3.83;;;2.03;;
9771;SDS011;4925;52.588;13.370;2023-07-13T10:29:17;3.05;;;2.40;;
9771;SDS011;4925;52.588;13.370;2023-07-13T10:31:45;4.55;;;2.08;;
9771;SDS011;4925;52.588;13.370;2023-07-13T10:34:11;3.03;;;2.20;;
9771;SDS011;4925;52.588;13.370;2023-07-13T10:36:45;6.68;;;1.80;;
9771;SDS011;4925;52.588;13.370;2023-07-13T10:39:23;3.20;;;1.90;;
9771;SDS011;4925;52.588;13.370;2023-07-13T10:41:55;2.92;;;1.95;;
9771;SDS011;4925;52.588;13.370;2023-07-13T10:44:32;2.03;;;1.90;;
9771;SDS011;4925;52.588;13.370;2023-07-13T10:47:04;2.65;;;2.05;;
9771;SDS011;4925;52.588;13.370;2023-07-13T10:49:33;2.53;;;1.90;;
9771;SDS011;4925;52.588;13.370;2023-07-13T10:52:01;5.10;;;2.20;;
9771;SDS011;4925;52.588;13.370;2023-07-13T10:54:30;5.30;;;2.30;;
9771;SDS011;4925;52.588;13.370;2023-07-13T10:59:34;3.80;;;2.00;;
9771;SDS011;4925;52.588;13.370;2023-07-13T11:04:44;5.70;;;2.55;;
9771;SDS011;4925;52.588;13.370;2023-07-13T11:09:53;3.58;;;2.03;;
9771;SDS011;4925;52.588;13.370;2023-07-13T11:22:45;2.97;;;2.13;;
9771;SDS011;4925;52.588;13.370;2023-07-13T11:25:30;2.47;;;1.95;;
9771;SDS011;4925;52.588;13.370;2023-07-13T11:38:42;4.50;;;2.10;;
9771;SDS011;4925;52.588;13.370;2023-07-13T11:41:24;2.38;;;2.00;;
9771;SDS011;4925;52.588;13.370;2023-07-13T11:44:14;3.15;;;2.00;;
9771;SDS011;4925;52.588;13.370;2023-07-13T11:46:50;2.55;;;1.70;;
9771;SDS011;4925;52.588;13.370;2023-07-13T11:49:21;2.25;;;2.03;;
9771;SDS011;4925;52.588;13.370;2023-07-13T11:51:48;2.30;;;2.10;;
9771;SDS011;4925;52.588;13.370;2023-07-13T11:56:52;5.82;;;2.30;;
9771;SDS011;4925;52.588;13.370;2023-07-13T11:59:25;2.13;;;1.80;;
9771;SDS011;4925;52.588;13.370;2023-07-13T12:01:53;10.13;;;2.10;;
9771;SDS011;4925;52.588;13.370;2023-07-13T12:04:27;4.35;;;2.63;;
9771;SDS011;4925;52.588;13.370;2023-07-13T12:07:06;3.60;;;2.05;;
9771;SDS011;4925;52.588;13.370;2023-07-13T12:09:39;4.57;;;2.00;;
9771;SDS011;4925;52.588;13.370;2023-07-13T12:12:09;1.80;;;1.70;;
9771;SDS011;4925;52.588;13.370;2023-07-13T12:14:39;4.63;;;1.90;;
9771;SDS011;4925;52.588;13.370;2023-07-13T12:17:09;2.60;;;1.83;;
9771;SDS011;4925;52.588;13.370;2023-07-13T12:19:41;4.13;;;2.10;;
9771;SDS011;4925;52.588;13.370;2023-07-13T12:22:10;2.70;;;1.70;;
9771;SDS011;4925;52.588;13.370;2023-07-13T12:24:38;4.47;;;1.63;;
9771;SDS011;4925;52.588;13.370;2023-07-13T12:27:06;2.42;;;1.88;;
9771;SDS011;4925;52.588;13.370;2023-07-13T12:29:48;4.20;;;1.98;;
9771;SDS011;4925;52.588;13.370;2023-07-13T12:32:17;2.83;;;2.08;;
9771;SDS011;4925;52.588;13.370;2023-07-13T12:34:51;5.97;;;2.22;;
9771;SDS011;4925;52.588;13.370;2023-07-13T12:37:18;3.58;;;2.03;;
9771;SDS011;4925;52.588;13.370;2023-07-13T12:39:45;3.03;;;2.17;;
9771;SDS011;4925;52.588;13.370;2023-07-13T12:42:23;2.40;;;1.70;;
9771;SDS011;4925;52.588;13.370;2023-07-13T12:45:01;4.28;;;2.55;;
9771;SDS011;4925;52.588;13.370;2023-07-13T12:47:41;5.05;;;2.25;;
9771;SDS011;4925;52.588;13.370;2023-07-13T12:50:14;3.67;;;1.90;;
9771;SDS011;4925;52.588;13.370;2023-07-13T12:52:43;5.35;;;2.35;;
9771;SDS011;4925;52.588;13.370;2023-07-13T12:55:13;4.72;;;2.20;;
9771;SDS011;4925;52.588;13.370;2023-07-13T12:57:51;1.98;;;1.80;;
9771;SDS011;4925;52.588;13.370;2023-07-13T13:00:30;2.85;;;1.80;;
9771;SDS011;4925;52.588;13.370;2023-07-13T13:03:00;3.65;;;2.20;;
9771;SDS011;4925;52.588;13.370;2023-07-13T13:05:30;4.35;;;1.98;;
9771;SDS011;4925;52.588;13.370;2023-07-13T13:07:57;3.15;;;1.63;;
9771;SDS011;4925;52.588;13.370;2023-07-13T13:10:23;2.95;;;1.67;;
9771;SDS011;4925;52.588;13.370;2023-07-13T13:12:49;4.22;;;1.60;;
9771;SDS011;4925;52.588;13.370;2023-07-13T13:15:15;3.35;;;1.52;;
9771;SDS011;4925;52.588;13.370;2023-07-13T13:17:42;3.65;;;1.80;;
9771;SDS011;4925;52.588;13.370;2023-07-13T13:20:18;4.82;;;1.90;;
9771;SDS011;4925;52.588;13.370;2023-07-13T13:22:45;2.70;;;1.90;;
9771;SDS011;4925;52.588;13.370;2023-07-13T13:25:11;4.22;;;2.70;;
9771;SDS011;4925;52.588;13.370;2023-07-13T13:27:39;4.80;;;2.47;;
9771;SDS011;4925;52.588;13.370;2023-07-13T13:30:11;7.03;;;2.65;;
9771;SDS011;4925;52.588;13.370;2023-07-13T13:32:39;2.88;;;1.85;;
9771;SDS011;4925;52.588;13.370;2023-07-13T13:35:07;4.90;;;1.83;;
9771;SDS011;4925;52.588;13.370;2023-07-13T13:37:42;2.55;;;1.83;;
9771;SDS011;4925;52.588;13.370;2023-07-13T13:40:15;5.75;;;1.85;;
9771;SDS011;4925;52.588;13.370;2023-07-13T13:42:42;4.40;;;1.90;;
9771;SDS011;4925;52.588;13.370;2023-07-13T13:45:09;4.10;;;2.08;;
9771;SDS011;4925;52.588;13.370;2023-07-13T13:47:35;4.72;;;1.80;;
9771;SDS011;4925;52.588;13.370;2023-07-13T13:50:04;5.68;;;1.98;;
9771;SDS011;4925;52.588;13.370;2023-07-13T13:52:40;2.60;;;1.50;;
9771;SDS011;4925;52.588;13.370;2023-07-13T13:55:18;4.65;;;1.85;;
9771;SDS011;4925;52.588;13.370;2023-07-13T13:57:45;3.28;;;1.60;;
9771;SDS011;4925;52.588;13.370;2023-07-13T14:00:11;4.40;;;1.50;;
9771;SDS011;4925;52.588;13.370;2023-07-13T14:02:39;4.22;;;1.60;;
9771;SDS011;4925;52.588;13.370;2023-07-13T14:05:09;3.60;;;1.60;;
9771;SDS011;4925;52.588;13.370;2023-07-13T14:07:37;1.50;;;1.40;;
9771;SDS011;4925;52.588;13.370;2023-07-13T14:10:08;2.97;;;1.67;;
9771;SDS011;4925;52.588;13.370;2023-07-13T14:12:40;4.15;;;1.90;;
9771;SDS011;4925;52.588;13.370;2023-07-13T14:15:20;2.22;;;1.48;;
9771;SDS011;4925;52.588;13.370;2023-07-13T14:17:46;6.30;;;1.70;;
9771;SDS011;4925;52.588;13.370;2023-07-13T14:20:15;5.22;;;1.60;;
9771;SDS011;4925;52.588;13.370;2023-07-13T14:22:41;1.95;;;1.30;;
9771;SDS011;4925;52.588;13.370;2023-07-13T14:25:13;2.75;;;1.70;;
9771;SDS011;4925;52.588;13.370;2023-07-13T14:27:40;4.80;;;1.70;;
9771;SDS011;4925;52.588;13.370;2023-07-13T14:30:16;7.05;;;1.73;;
9771;SDS011;4925;52.588;13.370;2023-07-13T14:32:44;2.33;;;1.50;;
9771;SDS011;4925;52.588;13.370;2023-07-13T14:35:13;2.30;;;1.48;;
9771;SDS011;4925;52.588;13.370;2023-07-13T14:37:40;3.20;;;1.73;;
9771;SDS011;4925;52.588;13.370;2023-07-13T14:40:17;2.38;;;1.38;;
9771;SDS011;4925;52.588;13.370;2023-07-13T14:42:47;1.75;;;1.35;;
9771;SDS011;4925;52.588;13.370;2023-07-13T14:45:14;6.82;;;1.40;;
9771;SDS011;4925;52.588;13.370;2023-07-13T14:47:41;3.75;;;1.50;;
9771;SDS011;4925;52.588;13.370;2023-07-13T14:50:18;4.10;;;1.48;;
9771;SDS011;4925;52.588;13.370;2023-07-13T14:52:46;2.95;;;1.40;;
9771;SDS011;4925;52.588;13.370;2023-07-13T14:55:16;1.55;;;1.38;;
9771;SDS011;4925;52.588;13.370;2023-07-13T14:57:43;1.73;;;1.20;;
9771;SDS011;4925;52.588;13.370;2023-07-13T15:00:18;2.13;;;1.20;;
9771;SDS011;4925;52.588;13.370;2023-07-13T15:02:50;1.17;;;1.00;;
9771;SDS011;4925;52.588;13.370;2023-07-13T15:05:22;2.75;;;1.63;;
9771;SDS011;4925;52.588;13.370;2023-07-13T15:07:50;7.97;;;1.15;;
9771;SDS011;4925;52.588;13.370;2023-07-13T15:10:17;3.30;;;2.33;;
9771;SDS011;4925;52.588;13.370;2023-07-13T15:12:51;2.65;;;1.95;;
9771;SDS011;4925;52.588;13.370;2023-07-13T15:15:18;2.60;;;2.22;;
9771;SDS011;4925;52.588;13.370;2023-07-13T15:17:45;6.18;;;1.50;;
9771;SDS011;4925;52.588;13.370;2023-07-13T15:20:20;2.25;;;1.17;;
9771;SDS011;4925;52.588;13.370;2023-07-13T15:22:50;2.35;;;1.20;;
9771;SDS011;4925;52.588;13.370;2023-07-13T15:25:20;1.10;;;1.00;;
9771;SDS011;4925;52.588;13.370;2023-07-13T15:27:47;2.70;;;1.20;;
9771;SDS011;4925;52.588;13.370;2023-07-13T15:30:15;2.05;;;1.20;;
9771;SDS011;4925;52.588;13.370;2023-07-13T15:32:42;1.40;;;1.30;;
9771;SDS011;4925;52.588;13.370;2023-07-13T15:35:16;1.33;;;1.17;;
9771;SDS011;4925;52.588;13.370;2023-07-13T15:37:47;3.17;;;1.67;;
9771;SDS011;4925;52.588;13.370;2023-07-13T15:40:13;2.33;;;1.23;;
9771;SDS011;4925;52.588;13.370;2023-07-13T15:42:43;2.70;;;1.42;;
9771;SDS011;4925;52.588;13.370;2023-07-13T15:45:20;1.83;;;1.02;;
9771;SDS011;4925;52.588;13.370;2023-07-13T15:47:47;4.10;;;1.77;;
9771;SDS011;4925;52.588;13.370;2023-07-13T15:50:14;2.97;;;2.40;;
9771;SDS011;4925;52.588;13.370;2023-07-13T15:52:42;1.65;;;1.20;;
9771;SDS011;4925;52.588;13.370;2023-07-13T15:55:11;2.97;;;1.23;;
9771;SDS011;4925;52.588;13.370;2023-07-13T15:57:38;4.18;;;1.25;;
9771;SDS011;4925;52.588;13.370;2023-07-13T16:00:14;2.08;;;1.27;;
9771;SDS011;4925;52.588;13.370;2023-07-13T16:02:50;0.93;;;0.90;;
9771;SDS011;4925;52.588;13.370;2023-07-13T16:05:17;2.25;;;1.30;;
9771;SDS011;4925;52.588;13.370;2023-07-13T16:07:47;2.03;;;1.10;;
9771;SDS011;4925;52.588;13.370;2023-07-13T16:10:37;2.85;;;1.20;;
9771;SDS011;4925;52.588;13.370;2023-07-13T16:13:05;1.83;;;1.15;;
9771;SDS011;4925;52.588;13.370;2023-07-13T16:15:40;3.67;;;1.60;;
9771;SDS011;4925;52.588;13.370;2023-07-13T16:18:12;1.88;;;1.38;;
9771;SDS011;4925;52.588;13.370;2023-07-13T16:20:40;4.15;;;1.20;;
9771;SDS011;4925;52.588;13.370;2023-07-13T16:23:08;3.95;;;1.55;;
9771;SDS011;4925;52.588;13.370;2023-07-13T16:25:35;2.45;;;1.27;;
9771;SDS011;4925;52.588;13.370;2023-07-13T16:28:01;3.25;;;1.30;;
9771;SDS011;4925;52.588;13.370;2023-07-13T16:30:28;7.50;;;1.33;;
9771;SDS011;4925;52.588;13.370;2023-07-13T16:32:56;1.95;;;1.40;;
9771;SDS011;4925;52.588;13.370;2023-07-13T16:35:27;1.75;;;1.10;;
9771;SDS011;4925;52.588;13.370;2023-07-13T16:37:54;2.08;;;1.30;;
9771;SDS011;4925;52.588;13.370;2023-07-13T16:40:26;3.20;;;1.95;;
9771;SDS011;4925;52.588;13.370;2023-07-13T16:42:56;3.45;;;1.33;;
9771;SDS011;4925;52.588;13.370;2023-07-13T16:45:24;3.03;;;1.20;;
9771;SDS011;4925;52.588;13.370;2023-07-13T16:47:52;3.90;;;1.35;;
9771;SDS011;4925;52.588;13.370;2023-07-13T16:50:20;4.13;;;1.15;;
9771;SDS011;4925;52.588;13.370;2023-07-13T16:52:47;3.35;;;1.30;;
9771;SDS011;4925;52.588;13.370;2023-07-13T16:55:14;4.15;;;1.55;;
9771;SDS011;4925;52.588;13.370;2023-07-13T16:57:42;1.13;;;1.02;;